Time;durP1;ratioP1;P1;durP2;ratioP2;P2;SDS_P1;SDS_P2;PMS_P1;PMS_P2;Temp;Humidity;BMP_temperature;BMP_pressure;BME280_temperature;BME280_humidity;BME280_pressure;Samples;Min_cycle;Max_cycle;Signal;HPM_P1;HPM_P2
2022/06/12 00:00:20;;;;;;;4.90;4.20;;;;;;;;;;5011275;28;20199;-75
2022/06/12 00:02:46;;;;;;;4.63;3.90;;;;;;;;;;4995123;28;20184;-75
2022/06/12 00:05:14;;;;;;;4.50;4.07;;;;;;;;;;4993904;28;20274;-75
2022/06/12 00:07:41;;;;;;;6.07;4.07;;;;;;;;;;4996106;28;20183;-75
2022/06/12 00:10:07;;;;;;;5.70;4.47;;;;;;;;;;4997083;28;20670;-75
2022/06/12 00:12:33;;;;;;;6.17;4.17;;;;;;;;;;4995205;28;20186;-75
2022/06/12 00:15:00;;;;;;;4.97;4.20;;;;;;;;;;4995150;28;20241;-75
2022/06/12 00:17:26;;;;;;;5.90;4.03;;;;;;;;;;4994402;28;20180;-75
2022/06/12 00:19:52;;;;;;;6.47;4.10;;;;;;;;;;5000179;28;20192;-75
2022/06/12 00:22:19;;;;;;;4.80;4.13;;;;;;;;;;5004916;28;20186;-75
2022/06/12 00:24:45;;;;;;;7.00;4.30;;;;;;;;;;5006370;28;20278;-75
2022/06/12 00:27:12;;;;;;;5.07;4.30;;;;;;;;;;4999493;28;20190;-75
2022/06/12 00:29:39;;;;;;;5.10;4.20;;;;;;;;;;5005480;28;20175;-75
2022/06/12 00:32:24;;;;;;;7.67;4.37;;;;;;;;;;4982164;28;20270;-75
2022/06/12 00:34:52;;;;;;;6.53;4.70;;;;;;;;;;5020935;28;21786;-75
2022/06/12 00:37:20;;;;;;;5.70;4.20;;;;;;;;;;5007173;28;20187;-75
2022/06/12 00:39:47;;;;;;;5.13;4.57;;;;;;;;;;5000692;28;20701;-75
2022/06/12 00:42:21;;;;;;;5.30;4.60;;;;;;;;;;4999530;28;20199;-75
2022/06/12 00:44:47;;;;;;;7.53;4.57;;;;;;;;;;4998161;28;20680;-76
2022/06/12 00:47:14;;;;;;;5.43;4.70;;;;;;;;;;4998030;28;20179;-75
2022/06/12 00:49:45;;;;;;;5.03;4.33;;;;;;;;;;5002952;28;20221;-75
2022/06/12 00:52:18;;;;;;;5.53;4.70;;;;;;;;;;5015892;28;20276;-75
2022/06/12 00:54:48;;;;;;;6.43;4.80;;;;;;;;;;5005669;28;20258;-74
2022/06/12 00:57:14;;;;;;;6.00;4.83;;;;;;;;;;4998894;28;20203;-75
2022/06/12 00:59:45;;;;;;;7.90;5.00;;;;;;;;;;5003861;28;20669;-75
2022/06/12 01:02:21;;;;;;;6.23;4.40;;;;;;;;;;4997972;28;20302;-76
2022/06/12 01:07:34;;;;;;;5.27;4.67;;;;;;;;;;4993104;28;20188;-76
2022/06/12 01:10:02;;;;;;;6.33;5.03;;;;;;;;;;5003379;28;20191;-76
2022/06/12 01:12:32;;;;;;;6.80;5.27;;;;;;;;;;5002602;28;20668;-76
2022/06/12 01:15:03;;;;;;;5.97;5.23;;;;;;;;;;5006274;28;20234;-75
2022/06/12 01:17:30;;;;;;;6.20;5.17;;;;;;;;;;5002512;28;20198;-75
2022/06/12 01:19:58;;;;;;;5.63;4.77;;;;;;;;;;4998226;28;20219;-75
2022/06/12 01:22:39;;;;;;;6.23;5.63;;;;;;;;;;4988682;28;20192;-75
2022/06/12 01:25:08;;;;;;;5.40;4.87;;;;;;;;;;4995627;28;20203;-75
2022/06/12 01:27:47;;;;;;;5.30;4.80;;;;;;;;;;5006764;28;20171;-75
2022/06/12 01:30:16;;;;;;;7.33;4.83;;;;;;;;;;4997996;28;20207;-75
2022/06/12 01:32:51;;;;;;;5.27;4.77;;;;;;;;;;4997321;28;20684;-77
2022/06/12 01:35:31;;;;;;;6.30;5.10;;;;;;;;;;4997542;28;20189;-75
2022/06/12 01:38:12;;;;;;;6.80;4.70;;;;;;;;;;4999598;28;20188;-76
2022/06/12 01:40:57;;;;;;;9.27;5.60;;;;;;;;;;5012710;28;20203;-76
2022/06/12 01:43:23;;;;;;;5.73;4.80;;;;;;;;;;5007670;28;20187;-75
2022/06/12 01:45:53;;;;;;;7.80;4.80;;;;;;;;;;5005031;28;20218;-76
2022/06/12 01:48:26;;;;;;;6.20;5.07;;;;;;;;;;5013099;28;20187;-75
2022/06/12 01:50:52;;;;;;;5.07;4.57;;;;;;;;;;4995913;28;20200;-75
2022/06/12 01:53:26;;;;;;;6.13;5.13;;;;;;;;;;5006063;28;20246;-76
2022/06/12 01:55:52;;;;;;;5.50;4.97;;;;;;;;;;4994870;28;20201;-75
2022/06/12 01:58:23;;;;;;;5.43;4.63;;;;;;;;;;5007375;28;20203;-76
2022/06/12 02:00:52;;;;;;;7.17;5.50;;;;;;;;;;5005851;28;20203;-75
2022/06/12 02:03:24;;;;;;;5.20;4.67;;;;;;;;;;5006448;28;20183;-75
2022/06/12 02:06:01;;;;;;;5.27;4.77;;;;;;;;;;5002709;28;20211;-75
2022/06/12 02:08:32;;;;;;;5.60;4.53;;;;;;;;;;4994337;28;20203;-75
2022/06/12 02:13:11;;;;;;;4.97;4.47;;;;;;;;;;5009752;28;20688;-75
2022/06/12 02:13:48;;;;;;;5.63;5.03;;;;;;;;;;4999128;28;20751;-76
2022/06/12 02:16:17;;;;;;;7.93;5.20;;;;;;;;;;5003006;28;20168;-76
2022/06/12 02:18:50;;;;;;;5.90;5.07;;;;;;;;;;4995464;28;20212;-75
2022/06/12 02:21:37;;;;;;;5.63;4.90;;;;;;;;;;5003383;28;20297;-75
2022/06/12 02:24:13;;;;;;;7.47;5.30;;;;;;;;;;4989203;28;20187;-75
2022/06/12 02:26:43;;;;;;;5.73;5.13;;;;;;;;;;5010916;28;20190;-75
2022/06/12 02:29:17;;;;;;;7.73;5.33;;;;;;;;;;4997341;28;20341;-75
2022/06/12 02:31:45;;;;;;;6.80;5.30;;;;;;;;;;4998888;28;20211;-75
2022/06/12 02:34:13;;;;;;;7.70;5.40;;;;;;;;;;5000826;28;20258;-76
2022/06/12 02:36:45;;;;;;;5.70;5.00;;;;;;;;;;5010036;28;20312;-75
2022/06/12 02:39:18;;;;;;;6.40;4.90;;;;;;;;;;5006182;28;20190;-75
2022/06/12 02:41:48;;;;;;;6.20;4.80;;;;;;;;;;4997318;28;20200;-75
2022/06/12 02:44:27;;;;;;;4.97;4.47;;;;;;;;;;4998134;28;20295;-75
2022/06/12 02:47:13;;;;;;;5.67;5.03;;;;;;;;;;4993110;28;20262;-75
2022/06/12 02:49:43;;;;;;;5.53;5.03;;;;;;;;;;5009469;28;20657;-76
2022/06/12 02:52:28;;;;;;;8.13;5.10;;;;;;;;;;5013615;28;20192;-76
2022/06/12 02:54:58;;;;;;;6.30;5.00;;;;;;;;;;5001025;28;20222;-75
2022/06/12 02:57:40;;;;;;;7.13;4.80;;;;;;;;;;4972237;28;20226;-76
2022/06/12 03:00:16;;;;;;;5.90;5.30;;;;;;;;;;5002378;28;20192;-75
2022/06/12 03:02:58;;;;;;;6.43;4.73;;;;;;;;;;4992936;28;20187;-75
2022/06/12 03:05:29;;;;;;;5.60;4.70;;;;;;;;;;4999396;28;20204;-75
2022/06/12 03:08:06;;;;;;;5.10;4.60;;;;;;;;;;4992217;28;20195;-75
2022/06/12 03:10:39;;;;;;;5.83;5.17;;;;;;;;;;5000239;28;20198;-75
2022/06/12 03:13:07;;;;;;;4.93;4.47;;;;;;;;;;4995322;28;20196;-75
2022/06/12 03:15:33;;;;;;;5.70;5.13;;;;;;;;;;4992220;28;20222;-75
2022/06/12 03:18:00;;;;;;;5.67;4.90;;;;;;;;;;5003096;28;20194;-75
2022/06/12 03:20:32;;;;;;;5.37;4.83;;;;;;;;;;5001725;28;20338;-75
2022/06/12 03:23:19;;;;;;;4.80;4.30;;;;;;;;;;4985512;28;20195;-76
2022/06/12 03:25:51;;;;;;;5.93;4.60;;;;;;;;;;5003443;28;20227;-75
2022/06/12 03:28:23;;;;;;;5.97;4.60;;;;;;;;;;5006754;28;20203;-75
2022/06/12 03:30:53;;;;;;;5.97;4.97;;;;;;;;;;5006608;28;20716;-75
2022/06/12 03:33:36;;;;;;;7.77;5.20;;;;;;;;;;4997107;28;20689;-75
2022/06/12 03:36:11;;;;;;;5.40;4.90;;;;;;;;;;5001701;28;20613;-75
2022/06/12 03:38:37;;;;;;;7.07;4.83;;;;;;;;;;5001807;28;20179;-75
2022/06/12 03:41:18;;;;;;;7.27;5.33;;;;;;;;;;4998470;28;20261;-75
2022/06/12 03:43:55;;;;;;;5.83;5.13;;;;;;;;;;5003110;28;20273;-75
2022/06/12 03:46:21;;;;;;;5.57;5.07;;;;;;;;;;5001054;28;20183;-75
2022/06/12 03:48:51;;;;;;;6.50;5.00;;;;;;;;;;5009315;28;20653;-75
2022/06/12 03:51:22;;;;;;;5.60;4.70;;;;;;;;;;5005186;28;20209;-75
2022/06/12 03:53:57;;;;;;;5.80;4.83;;;;;;;;;;4998528;28;20191;-75
2022/06/12 03:59:20;;;;;;;7.07;5.07;;;;;;;;;;4996478;28;20188;-76
2022/06/12 04:01:47;;;;;;;7.00;5.50;;;;;;;;;;4995247;28;20195;-75
2022/06/12 04:04:14;;;;;;;6.43;5.70;;;;;;;;;;5005345;28;20665;-75
2022/06/12 04:06:41;;;;;;;9.77;5.87;;;;;;;;;;5001172;28;20187;-75
2022/06/12 04:09:13;;;;;;;7.80;5.87;;;;;;;;;;5002122;28;20188;-74
2022/06/12 04:11:41;;;;;;;8.07;5.27;;;;;;;;;;5002310;28;20207;-74
2022/06/12 04:14:11;;;;;;;7.23;5.63;;;;;;;;;;4991326;28;20545;-75
2022/06/12 04:16:41;;;;;;;7.43;6.00;;;;;;;;;;4998210;28;20262;-75
2022/06/12 04:19:08;;;;;;;8.00;7.30;;;;;;;;;;4995563;28;20538;-75
2022/06/12 04:21:34;;;;;;;9.33;8.13;;;;;;;;;;5012663;28;20200;-74
2022/06/12 04:24:01;;;;;;;8.60;7.70;;;;;;;;;;4997860;28;20278;-74
2022/06/12 04:26:33;;;;;;;8.00;6.83;;;;;;;;;;4996637;28;20641;-75
2022/06/12 04:29:20;;;;;;;7.40;6.47;;;;;;;;;;4996276;28;20257;-74
2022/06/12 04:31:47;;;;;;;7.40;5.77;;;;;;;;;;4993993;28;20203;-74
2022/06/12 04:34:23;;;;;;;7.10;5.43;;;;;;;;;;5015544;28;20187;-75
2022/06/12 04:36:51;;;;;;;5.77;5.20;;;;;;;;;;5012739;28;20198;-74
2022/06/12 04:39:19;;;;;;;6.87;6.17;;;;;;;;;;4998935;28;20212;-74
2022/06/12 04:41:45;;;;;;;6.23;5.63;;;;;;;;;;5001643;28;20235;-74
2022/06/12 04:44:12;;;;;;;6.47;5.20;;;;;;;;;;4991064;28;20282;-75
2022/06/12 04:46:39;;;;;;;6.17;5.57;;;;;;;;;;4994491;28;20202;-75
2022/06/12 04:49:06;;;;;;;8.40;6.03;;;;;;;;;;4995767;28;20179;-75
2022/06/12 04:51:32;;;;;;;5.90;5.30;;;;;;;;;;4993383;28;20200;-74
2022/06/12 04:53:58;;;;;;;7.27;6.23;;;;;;;;;;4994849;28;20978;-74
2022/06/12 04:56:26;;;;;;;6.73;5.17;;;;;;;;;;5000219;28;20566;-74
2022/06/12 04:58:53;;;;;;;6.70;6.00;;;;;;;;;;4990876;28;20192;-75
2022/06/12 05:01:19;;;;;;;6.43;5.83;;;;;;;;;;4995587;28;20201;-74
2022/06/12 05:03:46;;;;;;;6.60;5.90;;;;;;;;;;4996771;28;20191;-75
2022/06/12 05:06:13;;;;;;;7.23;5.57;;;;;;;;;;4999177;28;20294;-75
2022/06/12 05:08:40;;;;;;;7.07;5.43;;;;;;;;;;5006716;28;20183;-75
2022/06/12 05:11:06;;;;;;;9.10;6.70;;;;;;;;;;5007658;28;20668;-76
2022/06/12 05:13:32;;;;;;;7.30;6.60;;;;;;;;;;4997682;28;20185;-74
2022/06/12 05:15:59;;;;;;;7.97;6.60;;;;;;;;;;4998633;28;20199;-75
2022/06/12 05:18:25;;;;;;;9.10;6.63;;;;;;;;;;5007100;28;20183;-76
2022/06/12 05:20:51;;;;;;;8.67;6.47;;;;;;;;;;5001305;28;20206;-74
2022/06/12 05:23:18;;;;;;;7.50;6.07;;;;;;;;;;5002301;28;20202;-75
2022/06/12 05:25:45;;;;;;;6.63;5.93;;;;;;;;;;4998446;28;20583;-75
2022/06/12 05:28:13;;;;;;;9.13;7.17;;;;;;;;;;5004095;28;20176;-74
2022/06/12 05:30:39;;;;;;;7.07;6.37;;;;;;;;;;5007110;28;20251;-75
2022/06/12 05:33:05;;;;;;;8.10;7.30;;;;;;;;;;5003631;28;20190;-74
2022/06/12 05:35:32;;;;;;;7.60;6.33;;;;;;;;;;5006324;28;20186;-75
2022/06/12 05:38:00;;;;;;;7.17;6.47;;;;;;;;;;4998851;28;20186;-74
2022/06/12 05:40:28;;;;;;;8.20;6.30;;;;;;;;;;5001158;28;20238;-76
2022/06/12 05:42:55;;;;;;;6.50;5.87;;;;;;;;;;4991976;28;20184;-74
2022/06/12 05:45:22;;;;;;;7.90;6.00;;;;;;;;;;5004293;28;20681;-75
2022/06/12 05:47:50;;;;;;;7.03;5.67;;;;;;;;;;4999356;28;20190;-75
2022/06/12 05:50:17;;;;;;;7.20;5.60;;;;;;;;;;5006556;28;20196;-75
2022/06/12 05:52:43;;;;;;;7.80;7.00;;;;;;;;;;4996340;28;20183;-74
2022/06/12 05:55:10;;;;;;;7.60;6.73;;;;;;;;;;4993452;28;20188;-75
2022/06/12 05:57:36;;;;;;;8.70;7.33;;;;;;;;;;4991728;28;20186;-76
2022/06/12 06:00:04;;;;;;;9.03;6.30;;;;;;;;;;5002793;28;20187;-76
2022/06/12 06:02:38;;;;;;;5.93;5.33;;;;;;;;;;4993966;28;20211;-77
2022/06/12 06:05:06;;;;;;;7.43;5.87;;;;;;;;;;5001245;28;20212;-76
2022/06/12 06:07:32;;;;;;;6.67;5.53;;;;;;;;;;4994291;28;20188;-77
2022/06/12 06:09:58;;;;;;;6.83;5.30;;;;;;;;;;4997687;28;20262;-77
2022/06/12 06:12:24;;;;;;;7.00;6.20;;;;;;;;;;5012026;28;20272;-77
2022/06/12 06:14:51;;;;;;;10.50;6.50;;;;;;;;;;5007758;28;20187;-77
2022/06/12 06:17:17;;;;;;;8.50;6.37;;;;;;;;;;4993347;28;20271;-77
2022/06/12 06:19:43;;;;;;;7.20;6.00;;;;;;;;;;4977253;28;20273;-77
2022/06/12 06:22:09;;;;;;;6.77;5.70;;;;;;;;;;4992623;28;20210;-77
2022/06/12 06:24:35;;;;;;;6.33;5.67;;;;;;;;;;4992822;28;20219;-77
2022/06/12 06:27:02;;;;;;;6.73;5.03;;;;;;;;;;4992942;28;20186;-77
2022/06/12 06:29:28;;;;;;;6.03;4.60;;;;;;;;;;4993623;28;20189;-77
2022/06/12 06:31:55;;;;;;;5.30;4.47;;;;;;;;;;5000970;28;20588;-76
2022/06/12 06:34:21;;;;;;;6.67;4.57;;;;;;;;;;4994205;28;20196;-76
2022/06/12 06:36:47;;;;;;;4.30;3.90;;;;;;;;;;4997858;28;20217;-76
2022/06/12 06:39:13;;;;;;;5.27;4.70;;;;;;;;;;4992674;28;20192;-76
2022/06/12 06:41:39;;;;;;;7.60;4.50;;;;;;;;;;4994886;28;20239;-74
2022/06/12 06:46:50;;;;;;;5.00;4.50;;;;;;;;;;5000094;28;20191;-74
2022/06/12 06:49:17;;;;;;;5.70;4.40;;;;;;;;;;4998178;28;20638;-75
2022/06/12 06:51:43;;;;;;;5.93;4.63;;;;;;;;;;4998222;28;20697;-78
2022/06/12 06:54:09;;;;;;;5.40;4.17;;;;;;;;;;4999644;28;20227;-77
2022/06/12 06:56:35;;;;;;;7.03;4.40;;;;;;;;;;4997520;28;20192;-76
2022/06/12 06:59:01;;;;;;;5.73;4.47;;;;;;;;;;5005042;28;20501;-81
2022/06/12 07:01:28;;;;;;;4.60;4.20;;;;;;;;;;5002124;28;20691;-82
2022/06/12 07:03:54;;;;;;;5.40;4.90;;;;;;;;;;4997857;28;20634;-81
2022/06/12 07:06:21;;;;;;;4.90;4.40;;;;;;;;;;5011176;28;20202;-81
2022/06/12 07:08:48;;;;;;;5.30;4.07;;;;;;;;;;5017357;28;20195;-81
2022/06/12 07:11:14;;;;;;;7.53;4.23;;;;;;;;;;5005005;28;20856;-81
2022/06/12 07:13:40;;;;;;;5.63;4.87;;;;;;;;;;4999057;28;20191;-81
2022/06/12 07:16:06;;;;;;;5.30;4.80;;;;;;;;;;5005366;28;20186;-80
2022/06/12 07:18:33;;;;;;;4.90;4.40;;;;;;;;;;5017867;28;20180;-80
2022/06/12 07:21:01;;;;;;;6.77;4.33;;;;;;;;;;5001660;28;20214;-81
2022/06/12 07:23:28;;;;;;;5.10;4.00;;;;;;;;;;5023364;28;20171;-81
2022/06/12 07:25:57;;;;;;;4.77;4.03;;;;;;;;;;4998649;28;20204;-81
2022/06/12 07:28:24;;;;;;;5.57;5.07;;;;;;;;;;4994254;28;20188;-81
2022/06/12 07:30:50;;;;;;;5.27;4.37;;;;;;;;;;4999390;28;20840;-81
2022/06/12 07:33:16;;;;;;;4.67;4.17;;;;;;;;;;4996114;28;20214;-82
2022/06/12 07:35:43;;;;;;;5.10;3.90;;;;;;;;;;5003378;28;20271;-81
2022/06/12 07:38:11;;;;;;;5.07;4.50;;;;;;;;;;4992659;28;20188;-80
2022/06/12 07:40:39;;;;;;;6.27;4.27;;;;;;;;;;4993082;28;20208;-77
2022/06/12 07:43:06;;;;;;;4.90;4.40;;;;;;;;;;4994210;28;20253;-82
2022/06/12 07:45:32;;;;;;;4.73;4.00;;;;;;;;;;5000570;28;20291;-78
2022/06/12 07:47:58;;;;;;;6.17;4.03;;;;;;;;;;4995768;28;20188;-79
2022/06/12 07:50:25;;;;;;;5.10;3.87;;;;;;;;;;4988683;28;20204;-75
2022/06/12 07:52:51;;;;;;;4.83;3.73;;;;;;;;;;4990109;28;20713;-78
2022/06/12 07:55:18;;;;;;;4.40;4.00;;;;;;;;;;4994719;28;20729;-78
2022/06/12 07:57:44;;;;;;;6.97;4.47;;;;;;;;;;4995624;28;20816;-78
2022/06/12 08:00:13;;;;;;;5.17;3.70;;;;;;;;;;4990528;28;20191;-78
2022/06/12 08:02:40;;;;;;;8.13;4.60;;;;;;;;;;4991201;28;21470;-76
2022/06/12 08:05:07;;;;;;;6.47;4.50;;;;;;;;;;4992116;28;20221;-76
2022/06/12 08:07:34;;;;;;;4.97;4.20;;;;;;;;;;4991023;28;20239;-76
2022/06/12 08:10:00;;;;;;;4.97;4.17;;;;;;;;;;4989384;28;20187;-76
2022/06/12 08:12:26;;;;;;;4.83;4.03;;;;;;;;;;4991543;28;20278;-76
2022/06/12 08:14:54;;;;;;;4.97;4.23;;;;;;;;;;4998761;28;20187;-78
2022/06/12 08:17:20;;;;;;;7.67;4.63;;;;;;;;;;4997063;28;20187;-76
2022/06/12 08:20:47;;;;;;;4.00;3.60;;;;;;;;;;4992542;28;20290;-76
2022/06/12 08:22:42;;;;;;;5.63;4.30;;;;;;;;;;4981346;28;20291;-76
2022/06/12 08:25:09;;;;;;;5.43;4.23;;;;;;;;;;4985067;28;20217;-75
2022/06/12 08:27:36;;;;;;;4.93;3.80;;;;;;;;;;4987353;28;20188;-76
2022/06/12 08:30:03;;;;;;;6.00;3.67;;;;;;;;;;5012960;28;20295;-77
2022/06/12 08:32:29;;;;;;;4.13;3.63;;;;;;;;;;4995773;28;20188;-76
2022/06/12 08:34:57;;;;;;;4.57;3.10;;;;;;;;;;4992635;28;20187;-76
2022/06/12 08:37:31;;;;;;;4.20;3.70;;;;;;;;;;4994427;28;20214;-77
2022/06/12 08:39:58;;;;;;;4.80;4.00;;;;;;;;;;4988759;28;20197;-76
2022/06/12 08:42:27;;;;;;;8.03;3.80;;;;;;;;;;4989789;28;20227;-76
2022/06/12 08:44:55;;;;;;;4.27;3.67;;;;;;;;;;4990145;28;20216;-77
2022/06/12 08:47:27;;;;;;;4.20;3.80;;;;;;;;;;4987096;28;20191;-76
2022/06/12 08:50:32;;;;;;;4.60;3.57;;;;;;;;;;4989592;28;20253;-77
2022/06/12 08:53:03;;;;;;;4.10;3.70;;;;;;;;;;4988206;28;20191;-77
2022/06/12 08:55:40;;;;;;;4.13;3.43;;;;;;;;;;4966417;28;20212;-77
2022/06/12 08:58:09;;;;;;;4.60;3.43;;;;;;;;;;4995295;28;20194;-77
2022/06/12 09:00:37;;;;;;;5.53;3.67;;;;;;;;;;4994515;28;20241;-77
2022/06/12 09:03:04;;;;;;;4.43;3.37;;;;;;;;;;4988390;28;20187;-77
2022/06/12 09:05:38;;;;;;;4.53;3.10;;;;;;;;;;4992472;28;20351;-77
2022/06/12 09:08:13;;;;;;;3.40;2.97;;;;;;;;;;4992347;28;20274;-76
2022/06/12 09:10:42;;;;;;;4.07;3.40;;;;;;;;;;5001075;28;20198;-77
2022/06/12 09:13:25;;;;;;;5.60;3.60;;;;;;;;;;4986714;28;20202;-77
2022/06/12 09:16:10;;;;;;;4.47;3.50;;;;;;;;;;4990727;28;20197;-77
2022/06/12 09:18:55;;;;;;;6.67;3.70;;;;;;;;;;4987006;28;20209;-77
2022/06/12 09:21:25;;;;;;;5.43;3.90;;;;;;;;;;4986043;28;20223;-77
2022/06/12 09:24:10;;;;;;;5.17;4.20;;;;;;;;;;4986925;28;20198;-77
2022/06/12 09:26:52;;;;;;;4.27;3.30;;;;;;;;;;4993414;28;20658;-77
2022/06/12 09:29:21;;;;;;;4.83;3.30;;;;;;;;;;4986870;28;20605;-77
2022/06/12 09:31:58;;;;;;;3.50;2.90;;;;;;;;;;4991854;28;20234;-77
2022/06/12 09:34:28;;;;;;;4.77;2.60;;;;;;;;;;4992897;28;20191;-77
2022/06/12 09:38:18;;;;;;;3.93;2.70;;;;;;;;;;4991758;28;20190;-77
2022/06/12 09:39:56;;;;;;;4.43;2.80;;;;;;;;;;4994159;28;20186;-77
2022/06/12 09:42:25;;;;;;;4.80;2.70;;;;;;;;;;4990428;28;20180;-77
2022/06/12 09:44:54;;;;;;;5.20;2.60;;;;;;;;;;4994229;28;20207;-77
2022/06/12 09:47:33;;;;;;;4.20;2.50;;;;;;;;;;4995986;28;20276;-77
2022/06/12 09:49:59;;;;;;;4.37;2.67;;;;;;;;;;5012404;28;20175;-77
2022/06/12 09:52:25;;;;;;;6.90;2.47;;;;;;;;;;4997666;28;20566;-77
2022/06/12 09:54:57;;;;;;;6.03;2.73;;;;;;;;;;4995724;28;20279;-78
2022/06/12 09:57:42;;;;;;;3.00;2.70;;;;;;;;;;5002256;28;20201;-77
2022/06/12 10:00:08;;;;;;;2.60;2.40;;;;;;;;;;4999077;28;20189;-77
2022/06/12 10:02:45;;;;;;;5.03;2.50;;;;;;;;;;4987641;28;20204;-77
2022/06/12 10:05:17;;;;;;;2.37;2.10;;;;;;;;;;4989047;28;20238;-77
2022/06/12 10:08:05;;;;;;;3.03;2.60;;;;;;;;;;4987849;28;20187;-77
2022/06/12 10:10:44;;;;;;;2.67;2.20;;;;;;;;;;4985417;28;20206;-77
2022/06/12 10:13:13;;;;;;;4.00;2.40;;;;;;;;;;4986841;28;20562;-77
2022/06/12 10:15:46;;;;;;;2.50;2.30;;;;;;;;;;4990766;28;20208;-77
2022/06/12 10:18:18;;;;;;;3.93;2.60;;;;;;;;;;4997098;28;20201;-75
2022/06/12 10:20:46;;;;;;;4.53;2.60;;;;;;;;;;4992276;28;20222;-78
2022/06/12 10:23:12;;;;;;;3.10;2.77;;;;;;;;;;4992003;28;20194;-79
2022/06/12 10:25:40;;;;;;;3.27;2.67;;;;;;;;;;4998905;28;20216;-78
2022/06/12 10:28:15;;;;;;;5.40;2.80;;;;;;;;;;5007555;28;20269;-77
2022/06/12 10:30:47;;;;;;;4.37;2.80;;;;;;;;;;4996360;28;20217;-77
2022/06/12 10:33:30;;;;;;;2.67;2.47;;;;;;;;;;4997931;28;20214;-76
2022/06/12 10:36:01;;;;;;;3.20;2.40;;;;;;;;;;4999495;28;20223;-78
2022/06/12 10:38:29;;;;;;;7.97;3.57;;;;;;;;;;4992762;28;20552;-77
2022/06/12 10:40:57;;;;;;;3.17;2.80;;;;;;;;;;4999391;28;20215;-76
2022/06/12 10:43:28;;;;;;;7.47;5.20;;;;;;;;;;4995063;28;20187;-77
2022/06/12 10:46:00;;;;;;;5.57;5.00;;;;;;;;;;4996497;28;20277;-78
2022/06/12 10:48:32;;;;;;;7.77;6.73;;;;;;;;;;4989911;28;20184;-77
2022/06/12 10:51:00;;;;;;;5.17;3.10;;;;;;;;;;4989320;28;20290;-78
2022/06/12 10:53:28;;;;;;;5.17;2.40;;;;;;;;;;4984969;28;20688;-73
2022/06/12 10:56:01;;;;;;;4.43;2.20;;;;;;;;;;4995115;28;20330;-80
2022/06/12 10:58:32;;;;;;;3.33;2.17;;;;;;;;;;4996607;28;20186;-79
2022/06/12 11:01:03;;;;;;;4.17;2.33;;;;;;;;;;5009397;28;20322;-78
2022/06/12 11:03:59;;;;;;;4.63;2.20;;;;;;;;;;4990111;28;20199;-77
2022/06/12 11:06:31;;;;;;;4.40;2.20;;;;;;;;;;4952916;28;20222;-77
2022/06/12 11:09:15;;;;;;;3.57;2.10;;;;;;;;;;4998440;28;20278;-77
2022/06/12 11:11:45;;;;;;;4.00;2.20;;;;;;;;;;5001535;28;20675;-78
2022/06/12 11:14:20;;;;;;;2.67;2.23;;;;;;;;;;4990561;28;20191;-77
2022/06/12 11:16:49;;;;;;;3.87;2.47;;;;;;;;;;5000136;28;20195;-75
2022/06/12 11:19:26;;;;;;;3.60;2.37;;;;;;;;;;4999444;28;20677;-75
2022/06/12 11:22:00;;;;;;;3.87;2.10;;;;;;;;;;4997144;28;20291;-72
2022/06/12 11:24:29;;;;;;;3.00;2.10;;;;;;;;;;4998804;28;20208;-76
2022/06/12 11:26:55;;;;;;;3.33;2.10;;;;;;;;;;5003805;28;20160;-76
2022/06/12 11:29:37;;;;;;;3.27;2.20;;;;;;;;;;4993083;28;20188;-79
2022/06/12 11:32:11;;;;;;;3.83;2.00;;;;;;;;;;4994075;28;20623;-77
2022/06/12 11:35:01;;;;;;;2.40;1.97;;;;;;;;;;4999549;28;20188;-75
2022/06/12 11:37:44;;;;;;;3.70;2.27;;;;;;;;;;4990719;28;20695;-81
2022/06/12 11:40:21;;;;;;;3.17;2.20;;;;;;;;;;4991783;28;20673;-77
2022/06/12 11:43:06;;;;;;;2.97;2.00;;;;;;;;;;4988430;28;20232;-79
2022/06/12 11:45:54;;;;;;;3.43;2.30;;;;;;;;;;4997523;28;20192;-79
2022/06/12 11:48:40;;;;;;;2.67;2.20;;;;;;;;;;4996578;28;20578;-79
2022/06/12 11:51:09;;;;;;;3.13;2.00;;;;;;;;;;4990672;28;20243;-78
2022/06/12 11:53:54;;;;;;;2.63;2.10;;;;;;;;;;5009680;28;20169;-79
2022/06/12 11:56:23;;;;;;;2.43;2.00;;;;;;;;;;5003902;28;20390;-79
2022/06/12 11:59:19;;;;;;;3.17;2.17;;;;;;;;;;4993435;28;20188;-80
2022/06/12 12:02:04;;;;;;;3.53;2.30;;;;;;;;;;4984548;28;20216;-79
2022/06/12 12:04:43;;;;;;;4.57;2.10;;;;;;;;;;4987234;28;20227;-79
2022/06/12 12:07:09;;;;;;;3.93;2.30;;;;;;;;;;4989956;28;20847;-79
2022/06/12 12:09:54;;;;;;;2.37;1.80;;;;;;;;;;5016421;28;20221;-79
2022/06/12 12:12:26;;;;;;;4.47;1.90;;;;;;;;;;4997077;28;20182;-80
2022/06/12 12:14:53;;;;;;;2.57;2.00;;;;;;;;;;4992889;28;20179;-79
2022/06/12 12:17:22;;;;;;;2.43;1.90;;;;;;;;;;5004914;28;20210;-79
2022/06/12 12:19:56;;;;;;;3.10;2.17;;;;;;;;;;4989179;28;20260;-80
2022/06/12 12:22:41;;;;;;;6.23;1.90;;;;;;;;;;4993861;28;20240;-80
2022/06/12 12:25:08;;;;;;;3.10;1.90;;;;;;;;;;4994817;28;20202;-79
2022/06/12 12:27:38;;;;;;;4.70;2.00;;;;;;;;;;5011629;28;20194;-79
2022/06/12 12:30:07;;;;;;;5.87;2.23;;;;;;;;;;5004485;28;20187;-79
2022/06/12 12:32:34;;;;;;;2.60;2.00;;;;;;;;;;5018410;28;20203;-80
2022/06/12 12:35:01;;;;;;;3.63;1.93;;;;;;;;;;4996459;28;20194;-79
2022/06/12 12:43:15;;;;;;;3.67;2.07;;;;;;;;;;4989997;28;20199;-75
2022/06/12 12:45:41;;;;;;;2.47;1.90;;;;;;;;;;4991602;28;20204;-78
2022/06/12 12:48:12;;;;;;;3.57;2.10;;;;;;;;;;4994960;28;20206;-78
2022/06/12 12:50:52;;;;;;;3.43;2.30;;;;;;;;;;4989714;28;20579;-78
2022/06/12 12:53:27;;;;;;;2.97;2.00;;;;;;;;;;5005954;28;20172;-80
2022/06/12 12:56:05;;;;;;;2.20;2.00;;;;;;;;;;4992610;28;20207;-74
2022/06/12 12:58:33;;;;;;;2.27;1.93;;;;;;;;;;4990955;28;20259;-73
2022/06/12 13:01:07;;;;;;;2.87;1.97;;;;;;;;;;4992593;28;20233;-73
2022/06/12 13:03:42;;;;;;;2.47;1.80;;;;;;;;;;4987660;28;20200;-72
2022/06/12 13:06:16;;;;;;;3.40;2.27;;;;;;;;;;4989879;28;20232;-74
2022/06/12 13:09:01;;;;;;;2.57;2.17;;;;;;;;;;4991405;28;20183;-72
2022/06/12 13:11:28;;;;;;;2.43;1.73;;;;;;;;;;4994438;28;20275;-72
2022/06/12 13:14:14;;;;;;;2.07;1.80;;;;;;;;;;4996820;28;20214;-76
2022/06/12 13:16:54;;;;;;;3.77;1.87;;;;;;;;;;4986915;28;20190;-73
2022/06/12 13:19:39;;;;;;;2.47;2.00;;;;;;;;;;4996570;28;20260;-73
2022/06/12 13:22:10;;;;;;;3.03;1.70;;;;;;;;;;4991083;28;20213;-72
2022/06/12 13:24:40;;;;;;;2.83;1.83;;;;;;;;;;4986763;28;20245;-73
2022/06/12 13:27:23;;;;;;;3.33;2.23;;;;;;;;;;4988459;28;20184;-73
2022/06/12 13:29:50;;;;;;;2.73;2.00;;;;;;;;;;4987477;28;20200;-73
2022/06/12 13:32:28;;;;;;;3.13;2.07;;;;;;;;;;4992643;28;20196;-73
2022/06/12 13:35:05;;;;;;;2.00;1.65;;;;;;;;;;4989066;28;20201;-74
2022/06/12 13:37:38;;;;;;;3.38;1.60;;;;;;;;;;4991886;28;20193;-73
2022/06/12 13:40:21;;;;;;;2.10;1.60;;;;;;;;;;4994869;28;20193;-72
2022/06/12 13:42:47;;;;;;;2.57;1.87;;;;;;;;;;5004867;28;20750;-72
2022/06/12 13:45:21;;;;;;;2.10;1.70;;;;;;;;;;4990930;28;20295;-72
2022/06/12 13:47:48;;;;;;;3.40;1.80;;;;;;;;;;4988146;28;20205;-72
2022/06/12 13:50:21;;;;;;;3.03;1.80;;;;;;;;;;4991921;28;20228;-72
2022/06/12 13:53:14;;;;;;;3.37;2.13;;;;;;;;;;4991601;28;20211;-71
2022/06/12 13:55:46;;;;;;;3.80;2.03;;;;;;;;;;4991758;28;20195;-73
2022/06/12 13:58:24;;;;;;;2.43;2.03;;;;;;;;;;4989325;28;20222;-73
2022/06/12 14:00:51;;;;;;;2.80;2.00;;;;;;;;;;4991979;28;20218;-74
2022/06/12 14:03:29;;;;;;;2.37;2.10;;;;;;;;;;4987801;28;20724;-73
2022/06/12 14:06:09;;;;;;;2.27;2.00;;;;;;;;;;4992888;28;20350;-73
2022/06/12 14:08:37;;;;;;;4.50;2.20;;;;;;;;;;4978048;28;20193;-73
2022/06/12 14:11:04;;;;;;;2.80;1.87;;;;;;;;;;4998419;28;20683;-73
2022/06/12 14:13:36;;;;;;;1.90;1.70;;;;;;;;;;4999059;28;20187;-73
2022/06/12 14:16:07;;;;;;;5.07;2.03;;;;;;;;;;4998694;28;20193;-75
2022/06/12 14:18:33;;;;;;;2.83;2.00;;;;;;;;;;4997557;28;20588;-73
2022/06/12 14:21:16;;;;;;;2.37;1.90;;;;;;;;;;4998471;28;20233;-73
2022/06/12 14:23:45;;;;;;;2.43;2.00;;;;;;;;;;5002077;28;20733;-72
2022/06/12 14:26:14;;;;;;;4.77;2.10;;;;;;;;;;4997545;28;20242;-73
2022/06/12 14:28:40;;;;;;;3.27;2.13;;;;;;;;;;5000666;28;20204;-73
2022/06/12 14:31:34;;;;;;;2.70;2.10;;;;;;;;;;4997348;28;20269;-73
2022/06/12 14:34:02;;;;;;;1.83;1.63;;;;;;;;;;4998538;28;20599;-72
2022/06/12 14:36:30;;;;;;;2.27;1.80;;;;;;;;;;4994144;28;21521;-73
2022/06/12 14:38:57;;;;;;;3.80;2.07;;;;;;;;;;4997773;28;20196;-73
2022/06/12 14:41:27;;;;;;;2.47;1.73;;;;;;;;;;5012873;28;20205;-73
2022/06/12 14:43:54;;;;;;;2.33;1.80;;;;;;;;;;4999103;28;20263;-73
2022/06/12 14:46:23;;;;;;;3.43;1.70;;;;;;;;;;4997275;28;20220;-73
2022/06/12 14:48:49;;;;;;;2.73;1.83;;;;;;;;;;4995982;28;20178;-73
2022/06/12 14:51:15;;;;;;;3.13;1.53;;;;;;;;;;5000816;28;20210;-73
2022/06/12 14:53:42;;;;;;;2.47;1.73;;;;;;;;;;5001586;28;20193;-73
2022/06/12 14:56:25;;;;;;;2.20;1.80;;;;;;;;;;4998135;28;20631;-73
2022/06/12 14:58:52;;;;;;;3.00;1.80;;;;;;;;;;4994543;28;20216;-73
2022/06/12 15:01:21;;;;;;;4.33;2.00;;;;;;;;;;4991590;28;20207;-73
2022/06/12 15:03:48;;;;;;;2.33;1.60;;;;;;;;;;4991690;28;20194;-73
2022/06/12 15:06:15;;;;;;;2.27;1.80;;;;;;;;;;4987510;28;20340;-72
2022/06/12 15:08:42;;;;;;;2.47;1.67;;;;;;;;;;4989149;28;20235;-72
2022/06/12 15:11:17;;;;;;;2.20;1.80;;;;;;;;;;4984153;28;20685;-72
2022/06/12 15:13:44;;;;;;;2.20;1.67;;;;;;;;;;4994123;28;20179;-72
2022/06/12 15:16:11;;;;;;;3.10;1.80;;;;;;;;;;4984413;28;20186;-72
2022/06/12 15:18:38;;;;;;;1.80;1.50;;;;;;;;;;4985625;28;20193;-72
2022/06/12 15:21:05;;;;;;;2.43;1.60;;;;;;;;;;4982575;28;20251;-72